createdAt,value
2023-02-09T00:00:51.432Z,94.80
2023-02-09T00:03:25.332Z,94.70
2023-02-09T00:05:56.437Z,94.50
2023-02-09T00:08:40.097Z,94.40
2023-02-09T00:11:20.701Z,94.00
2023-02-09T00:13:51.079Z,93.80
2023-02-09T00:16:27.645Z,93.80
2023-02-09T00:18:59.446Z,94.30
2023-02-09T00:21:30.270Z,93.90
2023-02-09T00:24:03.390Z,94.00
2023-02-09T00:26:34.356Z,94.30
2023-02-09T00:29:06.795Z,94.60
2023-02-09T00:31:37.995Z,94.60
2023-02-09T00:34:10.216Z,94.30
2023-02-09T00:36:40.683Z,94.40
2023-02-09T00:39:12.015Z,94.40
2023-02-09T00:42:00.186Z,94.50
2023-02-09T00:44:30.505Z,94.60
2023-02-09T00:47:00.960Z,94.70
2023-02-09T00:49:31.659Z,95.00
2023-02-09T00:52:02.919Z,95.30
2023-02-09T00:54:34.083Z,95.50
2023-02-09T00:57:07.502Z,95.80
2023-02-09T00:59:40.505Z,95.90
2023-02-09T01:02:10.822Z,95.70
2023-02-09T01:04:41.967Z,95.50
2023-02-09T01:07:13.249Z,95.80
2023-02-09T01:09:44.408Z,95.80
2023-02-09T01:12:15.675Z,95.90
2023-02-09T01:14:46.209Z,95.90
2023-02-09T01:17:18.314Z,96.20
2023-02-09T01:19:49.638Z,96.40
2023-02-09T01:22:21.600Z,96.50
2023-02-09T01:24:53.508Z,96.50
2023-02-09T01:27:26.234Z,96.30
2023-02-09T01:29:57.273Z,96.40
2023-02-09T01:32:29.663Z,96.50
2023-02-09T01:35:00.891Z,96.60
2023-02-09T01:37:32.495Z,96.50
2023-02-09T01:40:05.194Z,96.30
2023-02-09T01:42:37.005Z,96.00
2023-02-09T01:45:32.014Z,96.10
2023-02-09T01:48:05.828Z,96.20
2023-02-09T01:50:41.489Z,96.10
2023-02-09T01:53:12.887Z,96.20
2023-02-09T01:55:53.068Z,96.50
2023-02-09T01:58:27.429Z,96.00
2023-02-09T02:01:00.069Z,96.00
2023-02-09T02:03:32.581Z,95.90
2023-02-09T02:06:09.249Z,96.10
2023-02-09T02:08:47.262Z,96.10
2023-02-09T02:11:21.862Z,96.00
2023-02-09T02:13:53.982Z,96.20
2023-02-09T02:16:56.318Z,96.10
2023-02-09T02:19:46.906Z,95.60
2023-02-09T02:22:43.773Z,95.50
2023-02-09T02:26:11.075Z,95.10
2023-02-09T02:28:51.285Z,94.70
2023-02-09T02:31:46.951Z,94.70
2023-02-09T02:34:27.052Z,93.80
2023-02-09T02:37:23.085Z,94.00
2023-02-09T02:40:15.713Z,94.40
2023-02-09T02:43:36.636Z,94.20
2023-02-09T02:46:36.976Z,93.50
2023-02-09T02:49:11.014Z,93.70
2023-02-09T02:51:48.245Z,93.60
2023-02-09T02:54:28.882Z,94.00
2023-02-09T02:57:20.462Z,93.90
2023-02-09T03:00:14.335Z,93.80
2023-02-09T03:02:51.712Z,93.30
2023-02-09T03:05:26.794Z,93.40
2023-02-09T03:07:57.605Z,92.90
2023-02-09T03:10:30.173Z,92.90
2023-02-09T03:13:15.848Z,92.80
2023-02-09T03:16:23.373Z,93.00
2023-02-09T03:19:11.650Z,91.90
2023-02-09T03:21:52.448Z,92.20
2023-02-09T03:24:38.136Z,92.10
2023-02-09T03:27:33.656Z,92.50
2023-02-09T03:30:07.504Z,91.00
2023-02-09T03:32:47.354Z,90.70
2023-02-09T03:35:22.230Z,90.60
2023-02-09T03:37:54.178Z,90.60
2023-02-09T03:40:25.766Z,90.10
2023-02-09T03:42:56.540Z,90.10
2023-02-09T03:45:28.002Z,90.00
2023-02-09T03:47:58.689Z,89.20
2023-02-09T03:50:29.478Z,89.70
2023-02-09T03:53:00.574Z,87.50
2023-02-09T03:58:18.132Z,90.30
2023-02-09T04:00:49.284Z,91.30
2023-02-09T04:03:20.179Z,91.10
2023-02-09T04:05:51.281Z,90.60
2023-02-09T04:08:25.692Z,88.70
2023-02-09T04:11:09.105Z,90.20
2023-02-09T04:13:39.834Z,90.40
2023-02-09T04:16:10.973Z,89.90
2023-02-09T04:18:41.742Z,89.90
2023-02-09T04:21:15.772Z,90.40
2023-02-09T04:23:46.598Z,89.50
2023-02-09T04:26:18.477Z,90.00
2023-02-09T04:28:50.606Z,88.80
2023-02-09T04:31:22.676Z,89.70
2023-02-09T04:33:54.715Z,87.00
2023-02-09T04:36:26.268Z,86.90
2023-02-09T04:38:57.612Z,86.10
2023-02-09T04:41:30.836Z,86.50
2023-02-09T04:44:01.127Z,83.30
2023-02-09T04:46:34.186Z,81.10
2023-02-09T04:49:04.933Z,83.30
2023-02-09T04:51:35.714Z,82.70
2023-02-09T04:54:18.238Z,84.80
2023-02-09T04:57:11.270Z,85.80
2023-02-09T04:59:44.937Z,85.40
2023-02-09T05:02:15.485Z,84.20
2023-02-09T05:04:46.295Z,84.40
2023-02-09T05:07:18.152Z,84.60
2023-02-09T05:09:49.755Z,85.00
2023-02-09T05:12:20.180Z,85.50
2023-02-09T05:14:50.991Z,84.70
2023-02-09T05:17:23.003Z,81.50
2023-02-09T05:19:53.413Z,80.80
2023-02-09T05:22:24.633Z,82.20
2023-02-09T05:24:55.394Z,81.50
2023-02-09T05:27:26.162Z,80.80
2023-02-09T05:29:57.031Z,76.80
2023-02-09T05:32:27.419Z,77.40
2023-02-09T05:34:57.762Z,80.20
2023-02-09T05:37:28.107Z,74.70
2023-02-09T05:39:59.025Z,77.00
2023-02-09T05:42:30.210Z,75.00
2023-02-09T05:45:00.527Z,76.80
2023-02-09T05:47:31.414Z,77.30
2023-02-09T05:50:05.169Z,77.40
2023-02-09T05:52:36.005Z,75.60
2023-02-09T05:55:06.465Z,76.90
2023-02-09T05:57:37.059Z,79.40
2023-02-09T06:00:08.478Z,79.60
2023-02-09T06:02:39.326Z,79.30
2023-02-09T06:05:10.772Z,79.80
2023-02-09T06:07:41.905Z,80.80
2023-02-09T06:10:12.587Z,80.60
2023-02-09T06:12:43.417Z,79.80
2023-02-09T06:15:14.409Z,78.40
2023-02-09T06:17:45.499Z,77.10
2023-02-09T06:20:16.311Z,80.30
2023-02-09T06:22:46.629Z,79.80
2023-02-09T06:25:16.985Z,78.50
2023-02-09T06:27:47.328Z,79.20
2023-02-09T06:30:17.813Z,78.10
2023-02-09T06:32:48.978Z,78.40
2023-02-09T06:35:19.365Z,78.20
2023-02-09T06:37:49.727Z,78.10
2023-02-09T06:40:20.343Z,77.40
2023-02-09T06:42:50.756Z,77.00
2023-02-09T06:45:21.275Z,76.30
2023-02-09T06:47:53.524Z,74.70
2023-02-09T06:50:24.031Z,75.40
2023-02-09T06:52:55.524Z,73.70
2023-02-09T06:55:26.305Z,75.50
2023-02-09T06:58:00.358Z,74.90
2023-02-09T07:00:32.731Z,75.70
2023-02-09T07:03:03.189Z,74.20
2023-02-09T07:05:33.578Z,75.90
2023-02-09T07:08:03.996Z,77.00
2023-02-09T07:10:34.275Z,78.40
2023-02-09T07:13:05.143Z,79.50
2023-02-09T07:15:36.013Z,79.30
2023-02-09T07:18:09.135Z,75.50
2023-02-09T07:20:40.054Z,76.30
2023-02-09T07:23:10.501Z,77.60
2023-02-09T07:25:40.882Z,76.70
2023-02-09T07:28:12.193Z,74.90
2023-02-09T07:30:44.084Z,77.40
2023-02-09T07:33:14.722Z,77.50
2023-02-09T07:35:46.529Z,78.90
2023-02-09T07:38:29.619Z,79.70
2023-02-09T07:41:02.493Z,77.80
2023-02-09T07:43:33.720Z,75.90
2023-02-09T07:46:06.401Z,77.60
2023-02-09T07:48:39.822Z,75.10
2023-02-09T07:51:16.353Z,72.30
2023-02-09T07:53:47.382Z,76.90
2023-02-09T07:56:18.629Z,75.40
2023-02-09T07:58:49.869Z,73.70
2023-02-09T08:01:21.311Z,75.80
2023-02-09T08:03:53.200Z,75.30
2023-02-09T08:06:43.811Z,75.90
2023-02-09T08:09:18.628Z,75.10
2023-02-09T08:12:04.349Z,75.20
2023-02-09T08:14:45.380Z,75.20
2023-02-09T08:17:29.790Z,75.40
2023-02-09T08:20:17.359Z,78.10
2023-02-09T08:22:52.141Z,77.00
2023-02-09T08:25:26.604Z,77.70
2023-02-09T08:27:58.603Z,77.00
2023-02-09T08:30:29.879Z,76.50
2023-02-09T08:33:01.878Z,77.50
2023-02-09T08:35:34.110Z,76.70
2023-02-09T08:38:06.220Z,77.60
2023-02-09T08:40:43.319Z,77.60
2023-02-09T08:43:15.369Z,78.20
2023-02-09T08:45:46.419Z,78.90
2023-02-09T08:48:16.967Z,78.90
2023-02-09T08:50:47.728Z,79.10
2023-02-09T08:53:18.279Z,79.60
2023-02-09T08:55:49.361Z,80.70
2023-02-09T08:58:20.205Z,82.00
2023-02-09T09:00:51.150Z,82.70
2023-02-09T09:03:22.847Z,84.20
2023-02-09T09:05:54.847Z,83.50
2023-02-09T09:08:32.469Z,83.40
2023-02-09T09:11:04.841Z,83.10
2023-02-09T09:13:38.018Z,83.10
2023-02-09T09:16:13.238Z,83.20
2023-02-09T09:18:49.239Z,83.60
2023-02-09T09:21:22.631Z,83.90
2023-02-09T09:23:57.688Z,84.30
2023-02-09T09:26:30.427Z,85.90
2023-02-09T09:29:02.275Z,86.30
2023-02-09T09:31:35.675Z,86.50
2023-02-09T09:34:07.207Z,87.30
2023-02-09T09:36:38.192Z,88.30
2023-02-09T09:39:09.114Z,88.60
2023-02-09T09:41:41.488Z,87.60
2023-02-09T09:44:30.276Z,87.90
2023-02-09T09:47:04.309Z,88.20
2023-02-09T09:49:37.870Z,89.50
2023-02-09T09:52:41.421Z,88.70
2023-02-09T09:55:22.309Z,89.20
2023-02-09T09:57:54.473Z,90.20
2023-02-09T10:00:30.913Z,90.00
2023-02-09T10:03:01.997Z,90.30
2023-02-09T10:05:41.439Z,90.50
2023-02-09T10:08:18.763Z,90.40
2023-02-09T10:10:53.378Z,90.20
2023-02-09T10:13:28.256Z,90.60
2023-02-09T10:16:00.919Z,91.20
2023-02-09T10:18:35.973Z,91.10
2023-02-09T10:21:10.859Z,91.00
2023-02-09T10:23:51.389Z,91.40
2023-02-09T10:26:29.769Z,91.60
2023-02-09T10:29:21.321Z,91.80
2023-02-09T10:31:57.625Z,91.80
2023-02-09T10:34:54.566Z,91.80
2023-02-09T10:37:29.028Z,91.80
2023-02-09T10:40:04.689Z,91.70
2023-02-09T10:42:40.721Z,92.00
2023-02-09T10:45:30.430Z,91.80
2023-02-09T10:48:25.724Z,92.30
2023-02-09T10:51:09.240Z,92.40
2023-02-09T10:53:44.629Z,92.30
2023-02-09T10:56:24.019Z,92.60
2023-02-09T10:59:24.759Z,92.60
2023-02-09T11:02:04.300Z,92.40
2023-02-09T11:04:44.870Z,92.60
2023-02-09T11:07:24.868Z,92.90
2023-02-09T11:09:56.423Z,92.60
2023-02-09T11:12:30.632Z,93.30
2023-02-09T11:15:01.627Z,93.00
2023-02-09T11:17:50.821Z,92.80
2023-02-09T11:20:47.519Z,92.60
2023-02-09T11:23:46.186Z,92.70
2023-02-09T11:26:52.828Z,92.90
2023-02-09T11:29:44.802Z,93.00
2023-02-09T11:32:34.220Z,93.30
2023-02-09T11:35:23.530Z,93.30
2023-02-09T11:38:09.133Z,93.40
2023-02-09T11:41:00.120Z,93.60
2023-02-09T11:43:43.858Z,93.60
2023-02-09T11:46:26.033Z,93.60
2023-02-09T11:49:09.739Z,93.30
2023-02-09T11:51:45.732Z,93.50
2023-02-09T11:54:27.808Z,93.60
2023-02-09T11:57:04.557Z,93.60
2023-02-09T11:59:50.123Z,93.60
2023-02-09T12:02:24.063Z,93.80
2023-02-09T12:05:01.173Z,94.20
2023-02-09T12:07:40.162Z,94.30
2023-02-09T12:10:20.841Z,94.20
2023-02-09T12:13:05.289Z,94.10
2023-02-09T12:15:39.814Z,93.90
2023-02-09T12:18:25.416Z,93.70
2023-02-09T12:21:02.634Z,93.70
2023-02-09T12:23:47.258Z,93.70
2023-02-09T12:26:20.970Z,93.60
2023-02-09T12:29:23.411Z,93.50
2023-02-09T12:32:10.056Z,93.60
2023-02-09T12:34:47.096Z,93.40
2023-02-09T12:37:20.500Z,93.50
2023-02-09T12:40:09.700Z,93.60
2023-02-09T12:42:49.636Z,93.50
2023-02-09T12:45:34.785Z,93.40
2023-02-09T12:48:11.596Z,93.30
2023-02-09T12:50:57.794Z,93.30
2023-02-09T12:53:29.849Z,93.30
2023-02-09T12:56:16.824Z,93.40
2023-02-09T12:58:47.719Z,93.40
2023-02-09T13:01:20.847Z,93.60
2023-02-09T13:04:10.084Z,93.90
2023-02-09T13:06:55.319Z,93.80
2023-02-09T13:09:36.778Z,93.90
2023-02-09T13:12:31.570Z,93.90
2023-02-09T13:15:15.112Z,93.70
2023-02-09T13:18:16.885Z,93.80
2023-02-09T13:21:27.187Z,93.60
2023-02-09T13:23:58.266Z,93.70
2023-02-09T13:26:35.838Z,93.80
2023-02-09T13:29:21.695Z,93.90
2023-02-09T13:32:02.026Z,93.90
2023-02-09T13:34:40.154Z,93.90
2023-02-09T13:37:48.181Z,93.80
2023-02-09T13:40:26.484Z,93.80
2023-02-09T13:43:01.330Z,93.90
2023-02-09T13:45:34.183Z,93.70
2023-02-09T13:48:09.123Z,93.80
2023-02-09T13:50:49.045Z,93.90
2023-02-09T13:53:24.558Z,93.80
2023-02-09T13:55:58.417Z,93.50
2023-02-09T13:58:37.443Z,93.60
2023-02-09T14:01:20.616Z,93.70
2023-02-09T14:04:03.577Z,93.50
2023-02-09T14:06:56.299Z,93.60
2023-02-09T14:09:34.387Z,93.90
2023-02-09T14:12:11.688Z,94.10
2023-02-09T14:15:06.434Z,93.90
2023-02-09T14:17:39.088Z,94.00
2023-02-09T14:20:26.974Z,94.00
2023-02-09T14:23:03.660Z,94.10
2023-02-09T14:25:34.067Z,94.30
2023-02-09T14:28:05.785Z,94.30
2023-02-09T14:30:39.657Z,94.00
2023-02-09T14:33:27.069Z,94.00
2023-02-09T14:36:01.486Z,94.10
2023-02-09T14:38:46.522Z,94.00
2023-02-09T14:41:32.543Z,94.10
2023-02-09T14:44:26.048Z,94.20
2023-02-09T14:47:04.026Z,94.50
2023-02-09T14:49:35.695Z,94.40
2023-02-09T14:52:15.354Z,94.40
2023-02-09T14:54:50.990Z,94.00
2023-02-09T14:57:23.849Z,94.10
2023-02-09T14:59:54.972Z,93.70
2023-02-09T15:02:30.921Z,93.80
2023-02-09T15:05:02.627Z,94.20
2023-02-09T15:07:43.072Z,94.40
2023-02-09T15:10:35.518Z,94.60
2023-02-09T15:13:07.535Z,94.50
2023-02-09T15:15:39.883Z,94.60
2023-02-09T15:18:21.075Z,94.50
2023-02-09T15:20:52.928Z,94.30
2023-02-09T15:23:24.176Z,94.30
2023-02-09T15:25:56.825Z,94.30
2023-02-09T15:28:33.462Z,94.30
2023-02-09T15:31:05.437Z,94.30
2023-02-09T15:33:37.431Z,94.10
2023-02-09T15:36:10.719Z,94.30
2023-02-09T15:38:41.812Z,94.50
2023-02-09T15:41:35.843Z,94.80
2023-02-09T15:44:45.213Z,94.70
2023-02-09T15:47:35.410Z,94.50
2023-02-09T15:50:06.758Z,94.70
2023-02-09T15:52:38.795Z,94.30
2023-02-09T15:55:11.137Z,94.50
2023-02-09T15:57:41.868Z,94.80
2023-02-09T16:00:22.624Z,94.80
2023-02-09T16:02:54.417Z,94.60
2023-02-09T16:05:27.559Z,94.30
2023-02-09T16:08:00.293Z,94.00
2023-02-09T16:10:32.944Z,94.30
2023-02-09T16:13:03.704Z,94.20
2023-02-09T16:15:41.976Z,94.20
2023-02-09T16:18:14.524Z,94.30
2023-02-09T16:20:50.850Z,94.20
2023-02-09T16:23:26.195Z,94.40
2023-02-09T16:25:58.903Z,94.50
2023-02-09T16:28:32.694Z,94.70
2023-02-09T16:31:03.748Z,94.40
2023-02-09T16:33:34.872Z,94.20
2023-02-09T16:36:07.412Z,93.90
2023-02-09T16:38:38.384Z,93.70
2023-02-09T16:41:30.158Z,94.10
2023-02-09T16:44:02.035Z,94.10
2023-02-09T16:46:34.744Z,94.30
2023-02-09T16:49:06.472Z,94.40
2023-02-09T16:51:38.260Z,94.70
2023-02-09T16:54:09.312Z,94.50
2023-02-09T16:56:53.590Z,94.30
2023-02-09T16:59:25.412Z,93.80
2023-02-09T17:01:58.212Z,93.60
2023-02-09T17:04:29.470Z,93.70
2023-02-09T17:07:00.469Z,94.10
2023-02-09T17:09:31.287Z,94.20
2023-02-09T17:12:05.018Z,94.50
2023-02-09T17:14:36.552Z,94.40
2023-02-09T17:17:07.683Z,94.80
2023-02-09T17:19:47.243Z,94.20
2023-02-09T17:22:19.159Z,94.10
2023-02-09T17:24:50.229Z,94.10
2023-02-09T17:27:21.156Z,94.00
2023-02-09T17:29:51.887Z,94.20
2023-02-09T17:32:22.663Z,94.50
2023-02-09T17:34:53.405Z,94.60
2023-02-09T17:37:24.308Z,94.30
2023-02-09T17:39:55.081Z,94.30
2023-02-09T17:42:26.819Z,94.60
2023-02-09T17:44:57.831Z,94.30
2023-02-09T17:47:28.735Z,94.30
2023-02-09T17:49:59.502Z,94.20
2023-02-09T17:52:31.369Z,94.20
2023-02-09T17:55:02.366Z,94.70
2023-02-09T17:57:33.454Z,94.50
2023-02-09T18:00:05.377Z,94.10
2023-02-09T18:02:36.697Z,94.20
2023-02-09T18:05:07.973Z,94.30
2023-02-09T18:07:39.892Z,93.90
2023-02-09T18:10:11.209Z,93.90
2023-02-09T18:12:43.217Z,94.10
2023-02-09T18:15:36.253Z,94.30
2023-02-09T18:18:08.174Z,94.60
2023-02-09T18:20:39.708Z,94.50
2023-02-09T18:23:11.136Z,94.70
2023-02-09T18:25:42.515Z,94.30
2023-02-09T18:28:13.524Z,94.60
2023-02-09T18:30:45.498Z,94.50
2023-02-09T18:33:18.952Z,94.40
2023-02-09T18:35:50.285Z,94.30
2023-02-09T18:38:25.862Z,94.10
2023-02-09T18:40:56.588Z,94.40
2023-02-09T18:43:28.135Z,94.50
2023-02-09T18:46:00.716Z,94.30
2023-02-09T18:48:31.602Z,94.30
2023-02-09T18:51:02.197Z,94.40
2023-02-09T18:53:32.561Z,94.40
2023-02-09T18:56:03.423Z,94.50
2023-02-09T18:58:33.938Z,94.40
2023-02-09T19:01:04.264Z,94.50
2023-02-09T19:03:35.117Z,94.40
2023-02-09T19:06:05.588Z,94.20
2023-02-09T19:08:36.122Z,94.20
2023-02-09T19:11:07.959Z,94.10
2023-02-09T19:13:40.147Z,94.50
2023-02-09T19:16:15.575Z,94.40
2023-02-09T19:18:46.469Z,94.40
2023-02-09T19:21:19.419Z,94.40
2023-02-09T19:23:51.412Z,94.20
2023-02-09T19:26:23.722Z,94.30
2023-02-09T19:28:56.480Z,94.60
2023-02-09T19:31:27.085Z,94.60
2023-02-09T19:33:58.886Z,94.60
2023-02-09T19:36:30.373Z,94.70
2023-02-09T19:39:02.454Z,94.40
2023-02-09T19:41:33.170Z,94.50
2023-02-09T19:44:06.634Z,94.60
2023-02-09T19:46:37.432Z,94.30
2023-02-09T19:49:09.347Z,94.30
2023-02-09T19:51:40.662Z,94.70
2023-02-09T19:54:11.351Z,94.60
2023-02-09T19:56:42.008Z,94.30
2023-02-09T19:59:12.750Z,94.40
2023-02-09T20:01:43.324Z,94.50
2023-02-09T20:04:13.870Z,95.20
2023-02-09T20:06:44.630Z,95.10
2023-02-09T20:09:15.144Z,95.50
2023-02-09T20:11:46.087Z,95.70
2023-02-09T20:14:16.468Z,95.10
2023-02-09T20:16:47.343Z,95.30
2023-02-09T20:19:17.746Z,95.50
2023-02-09T20:21:48.106Z,95.90
2023-02-09T20:24:19.968Z,95.80
2023-02-09T20:26:51.871Z,96.20
2023-02-09T20:29:24.680Z,96.20
2023-02-09T20:31:55.054Z,96.10
2023-02-09T20:34:25.411Z,96.00
2023-02-09T20:36:56.099Z,96.30
2023-02-09T20:39:27.029Z,96.20
2023-02-09T20:42:18.461Z,96.10
2023-02-09T20:45:07.043Z,95.90
2023-02-09T20:47:37.649Z,95.70
2023-02-09T20:50:08.824Z,95.70
2023-02-09T20:52:41.616Z,95.90
2023-02-09T20:55:11.997Z,95.90
2023-02-09T20:57:42.515Z,95.90
2023-02-09T21:00:14.784Z,95.90
2023-02-09T21:02:45.867Z,96.30
2023-02-09T21:05:16.435Z,96.30
2023-02-09T21:07:47.692Z,96.20
2023-02-09T21:10:18.304Z,96.30
2023-02-09T21:12:49.356Z,96.20
2023-02-09T21:15:19.993Z,96.30
2023-02-09T21:17:50.804Z,96.30
2023-02-09T21:20:21.129Z,96.20
2023-02-09T21:22:54.436Z,96.10
2023-02-09T21:25:25.292Z,96.10
2023-02-09T21:27:58.980Z,95.90
2023-02-09T21:30:30.820Z,95.70
2023-02-09T21:33:02.171Z,95.20
2023-02-09T21:35:32.610Z,95.20
2023-02-09T21:38:02.972Z,95.20
2023-02-09T21:40:33.269Z,95.00
2023-02-09T21:43:04.170Z,94.70
2023-02-09T21:45:35.032Z,94.50
2023-02-09T21:48:05.750Z,94.50
2023-02-09T21:50:36.186Z,94.00
2023-02-09T21:53:06.922Z,94.10
2023-02-09T21:55:37.751Z,94.00
2023-02-09T21:58:08.053Z,93.60
2023-02-09T22:00:38.788Z,93.70
2023-02-09T22:03:09.096Z,92.90
2023-02-09T22:05:39.387Z,92.50
2023-02-09T22:08:10.829Z,92.10
2023-02-09T22:10:41.219Z,91.70
2023-02-09T22:13:11.898Z,91.00
2023-02-09T22:15:46.028Z,90.90
2023-02-09T22:18:16.636Z,89.90
2023-02-09T22:20:52.548Z,89.00
2023-02-09T22:23:23.309Z,87.40
2023-02-09T22:25:54.085Z,86.30
2023-02-09T22:28:24.821Z,84.30
2023-02-09T22:30:55.193Z,84.60
2023-02-09T22:33:25.644Z,83.50
2023-02-09T22:35:55.983Z,82.30
2023-02-09T22:38:33.413Z,80.50
2023-02-09T22:41:23.051Z,79.90
2023-02-09T22:44:19.892Z,78.80
2023-02-09T22:46:50.287Z,77.80
2023-02-09T22:49:23.044Z,75.80
2023-02-09T22:51:53.843Z,74.20
2023-02-09T22:54:24.779Z,74.50
2023-02-09T22:56:55.538Z,74.50
2023-02-09T22:59:26.523Z,73.60
2023-02-09T23:01:57.566Z,73.20
2023-02-09T23:04:27.851Z,72.60
2023-02-09T23:06:58.141Z,69.70
2023-02-09T23:09:28.928Z,69.70
2023-02-09T23:11:59.677Z,70.50
2023-02-09T23:14:30.942Z,70.80
2023-02-09T23:17:03.722Z,70.30
2023-02-09T23:19:34.988Z,70.10
2023-02-09T23:22:05.884Z,69.50
2023-02-09T23:24:37.743Z,69.40
2023-02-09T23:27:08.076Z,69.80
2023-02-09T23:29:38.799Z,69.60
2023-02-09T23:32:09.524Z,69.60
2023-02-09T23:34:41.720Z,69.90
2023-02-09T23:37:19.186Z,69.90
2023-02-09T23:39:59.679Z,69.10
2023-02-09T23:42:31.675Z,69.00
2023-02-09T23:45:02.023Z,67.80
2023-02-09T23:47:32.793Z,68.20
2023-02-09T23:50:04.075Z,67.80
2023-02-09T23:52:34.775Z,68.20
2023-02-09T23:55:07.529Z,67.00
2023-02-09T23:57:39.494Z,66.20
